Portada
METAR-TAF:

METAR-TAF

Aeroports :

Andahuaylas, Perú

latitud: 13-43S, longitud: 073-21W, altitud: 3444 m

Observació

L'informe es va fer fa 5 hores i 56 minuts, a les 19:00 UTC
Temperatura 17°C
Humitat 34%
Pressió 1036 hPa
Visibilitat 10 km o més
sense núvols per sota de 1500 mi sense presència de cumulonimbus.

METAR: SPHY 181900Z /////KT CAVOK 17/01 Q1036 RMK BIRD HAZARD RWY03/21 PP000

Hora: 19:56 (00:56 UTC)

Pronòstic

L'informe es va fer fa 7 hores i 56 minuts, a les 17:00 UTC
Pronòstic vàlid del 18 a les 18 UTC al 19 a les 18 UTC
Vent 2 kt amb direcció variable
Visibilitat 10 km o més
sense núvols per sota de 1500 mi sense presència de cumulonimbus.
Temporalment
l' 18 a les 18 UTC al 18 a les 22 UTC
Vent 12 kt del Nord

TAF: SPHY 181700Z 1818/1918 VRB02KT CAVOK TX18/1819Z TNM04/1911Z TEMPO 1818/1822 36012KT

Observacions i pronòstics meteorològics de més de 4000 aeroports (METAR i TAF).

Les estacions disponibles són els punts grocs i vermells al mapa.

Posi el ratolí al punt desitjat per veure el nom de l'estació.

Feu clic per veure les observacions i els pronòstics meteorològics.

Per canviar el mapa: feu clic els botons verds amb una creu de color negre per apropar; al botó verd amb un guió per allunyar la imatge; o en les fletxes verdes per a mapes adjacents.


METAR-TAF: